sensor_id;sensor_type;location;lat;lon;timestamp;P1;durP1;ratioP1;P2;durP2;ratioP2
8407;SDS011;4241;48.452;9.216;2023-05-02T00:00:45;433.07;;;128.10;;
8407;SDS011;4241;48.452;9.216;2023-05-02T00:03:12;431.77;;;128.23;;
8407;SDS011;4241;48.452;9.216;2023-05-02T00:05:40;436.40;;;131.30;;
8407;SDS011;4241;48.452;9.216;2023-05-02T00:08:07;434.07;;;130.23;;
8407;SDS011;4241;48.452;9.216;2023-05-02T00:10:34;432.63;;;128.20;;
8407;SDS011;4241;48.452;9.216;2023-05-02T00:13:01;437.23;;;132.77;;
8407;SDS011;4241;48.452;9.216;2023-05-02T00:15:29;446.30;;;140.23;;
8407;SDS011;4241;48.452;9.216;2023-05-02T00:17:56;434.17;;;129.70;;
8407;SDS011;4241;48.452;9.216;2023-05-02T00:20:23;432.33;;;129.20;;
8407;SDS011;4241;48.452;9.216;2023-05-02T00:22:50;437.17;;;133.10;;
8407;SDS011;4241;48.452;9.216;2023-05-02T00:25:17;431.43;;;128.10;;
8407;SDS011;4241;48.452;9.216;2023-05-02T00:27:43;430.93;;;128.37;;
8407;SDS011;4241;48.452;9.216;2023-05-02T00:30:10;431.53;;;128.17;;
8407;SDS011;4241;48.452;9.216;2023-05-02T00:32:39;432.17;;;129.53;;
8407;SDS011;4241;48.452;9.216;2023-05-02T00:35:06;431.40;;;127.20;;
8407;SDS011;4241;48.452;9.216;2023-05-02T00:37:33;434.47;;;130.00;;
8407;SDS011;4241;48.452;9.216;2023-05-02T00:40:00;433.47;;;129.57;;
8407;SDS011;4241;48.452;9.216;2023-05-02T00:42:27;436.80;;;131.87;;
8407;SDS011;4241;48.452;9.216;2023-05-02T00:44:55;435.20;;;131.20;;
8407;SDS011;4241;48.452;9.216;2023-05-02T00:47:22;434.47;;;129.10;;
8407;SDS011;4241;48.452;9.216;2023-05-02T00:49:50;436.70;;;132.17;;
8407;SDS011;4241;48.452;9.216;2023-05-02T00:52:17;433.47;;;129.97;;
8407;SDS011;4241;48.452;9.216;2023-05-02T00:54:44;431.77;;;128.70;;
8407;SDS011;4241;48.452;9.216;2023-05-02T00:57:12;434.53;;;130.63;;
8407;SDS011;4241;48.452;9.216;2023-05-02T00:59:39;434.50;;;130.03;;
8407;SDS011;4241;48.452;9.216;2023-05-02T01:02:10;434.83;;;129.47;;
8407;SDS011;4241;48.452;9.216;2023-05-02T01:04:49;436.17;;;130.80;;
8407;SDS011;4241;48.452;9.216;2023-05-02T01:07:29;432.13;;;128.03;;
8407;SDS011;4241;48.452;9.216;2023-05-02T01:10:10;432.17;;;128.17;;
8407;SDS011;4241;48.452;9.216;2023-05-02T01:12:46;435.47;;;131.23;;
8407;SDS011;4241;48.452;9.216;2023-05-02T01:15:19;438.83;;;134.03;;
8407;SDS011;4241;48.452;9.216;2023-05-02T01:17:48;437.87;;;133.97;;
8407;SDS011;4241;48.452;9.216;2023-05-02T01:20:20;433.07;;;129.53;;
8407;SDS011;4241;48.452;9.216;2023-05-02T01:22:51;433.00;;;130.10;;
8407;SDS011;4241;48.452;9.216;2023-05-02T01:25:21;433.47;;;129.60;;
8407;SDS011;4241;48.452;9.216;2023-05-02T01:27:55;434.43;;;131.43;;
8407;SDS011;4241;48.452;9.216;2023-05-02T01:30:31;429.97;;;126.90;;
8407;SDS011;4241;48.452;9.216;2023-05-02T01:33:01;431.67;;;128.40;;
8407;SDS011;4241;48.452;9.216;2023-05-02T01:35:30;446.80;;;140.00;;
8407;SDS011;4241;48.452;9.216;2023-05-02T01:37:59;433.43;;;130.37;;
8407;SDS011;4241;48.452;9.216;2023-05-02T01:40:27;435.90;;;132.77;;
8407;SDS011;4241;48.452;9.216;2023-05-02T01:42:54;433.77;;;129.23;;
8407;SDS011;4241;48.452;9.216;2023-05-02T01:45:23;439.63;;;135.30;;
8407;SDS011;4241;48.452;9.216;2023-05-02T01:47:53;428.97;;;125.60;;
8407;SDS011;4241;48.452;9.216;2023-05-02T01:50:21;438.40;;;132.20;;
8407;SDS011;4241;48.452;9.216;2023-05-02T01:52:51;434.73;;;131.07;;
8407;SDS011;4241;48.452;9.216;2023-05-02T01:55:20;437.50;;;131.27;;
8407;SDS011;4241;48.452;9.216;2023-05-02T01:57:49;432.50;;;129.70;;
8407;SDS011;4241;48.452;9.216;2023-05-02T02:00:18;432.73;;;130.60;;
8407;SDS011;4241;48.452;9.216;2023-05-02T02:02:47;432.30;;;129.13;;
8407;SDS011;4241;48.452;9.216;2023-05-02T02:05:17;435.80;;;132.00;;
8407;SDS011;4241;48.452;9.216;2023-05-02T02:07:46;437.40;;;132.43;;
8407;SDS011;4241;48.452;9.216;2023-05-02T02:10:14;429.67;;;127.83;;
8407;SDS011;4241;48.452;9.216;2023-05-02T02:12:42;435.67;;;130.83;;
8407;SDS011;4241;48.452;9.216;2023-05-02T02:15:17;435.20;;;131.50;;
8407;SDS011;4241;48.452;9.216;2023-05-02T02:17:53;439.90;;;133.43;;
8407;SDS011;4241;48.452;9.216;2023-05-02T02:20:25;430.53;;;126.93;;
8407;SDS011;4241;48.452;9.216;2023-05-02T02:22:53;432.87;;;128.80;;
8407;SDS011;4241;48.452;9.216;2023-05-02T02:25:22;436.60;;;132.93;;
8407;SDS011;4241;48.452;9.216;2023-05-02T02:27:51;432.63;;;129.10;;
8407;SDS011;4241;48.452;9.216;2023-05-02T02:30:18;431.70;;;128.67;;
8407;SDS011;4241;48.452;9.216;2023-05-02T02:32:45;432.47;;;129.47;;
8407;SDS011;4241;48.452;9.216;2023-05-02T02:35:11;428.90;;;126.03;;
8407;SDS011;4241;48.452;9.216;2023-05-02T02:37:43;434.50;;;129.10;;
8407;SDS011;4241;48.452;9.216;2023-05-02T02:40:15;435.00;;;129.77;;
8407;SDS011;4241;48.452;9.216;2023-05-02T02:42:51;427.40;;;124.50;;
8407;SDS011;4241;48.452;9.216;2023-05-02T02:45:29;436.43;;;131.17;;
8407;SDS011;4241;48.452;9.216;2023-05-02T02:48:06;427.97;;;123.90;;
8407;SDS011;4241;48.452;9.216;2023-05-02T02:50:41;429.70;;;127.53;;
8407;SDS011;4241;48.452;9.216;2023-05-02T02:53:18;430.47;;;126.67;;
8407;SDS011;4241;48.452;9.216;2023-05-02T02:55:52;429.80;;;126.00;;
8407;SDS011;4241;48.452;9.216;2023-05-02T02:58:27;428.03;;;125.70;;
8407;SDS011;4241;48.452;9.216;2023-05-02T03:01:02;427.13;;;123.57;;
8407;SDS011;4241;48.452;9.216;2023-05-02T03:03:30;427.30;;;124.03;;
8407;SDS011;4241;48.452;9.216;2023-05-02T03:05:59;431.80;;;127.23;;
8407;SDS011;4241;48.452;9.216;2023-05-02T03:08:27;426.97;;;124.23;;
8407;SDS011;4241;48.452;9.216;2023-05-02T03:11:04;429.47;;;125.93;;
8407;SDS011;4241;48.452;9.216;2023-05-02T03:13:31;430.17;;;126.73;;
8407;SDS011;4241;48.452;9.216;2023-05-02T03:19:00;429.27;;;126.43;;
8407;SDS011;4241;48.452;9.216;2023-05-02T03:21:27;431.13;;;127.20;;
8407;SDS011;4241;48.452;9.216;2023-05-02T03:23:56;428.00;;;125.33;;
8407;SDS011;4241;48.452;9.216;2023-05-02T03:26:24;424.77;;;122.73;;
8407;SDS011;4241;48.452;9.216;2023-05-02T03:28:50;436.83;;;132.23;;
8407;SDS011;4241;48.452;9.216;2023-05-02T03:31:17;426.80;;;124.03;;
8407;SDS011;4241;48.452;9.216;2023-05-02T03:33:44;427.73;;;124.83;;
8407;SDS011;4241;48.452;9.216;2023-05-02T03:36:11;426.93;;;124.53;;
8407;SDS011;4241;48.452;9.216;2023-05-02T03:38:38;426.17;;;123.07;;
8407;SDS011;4241;48.452;9.216;2023-05-02T03:41:06;424.13;;;122.10;;
8407;SDS011;4241;48.452;9.216;2023-05-02T03:43:33;426.63;;;123.10;;
8407;SDS011;4241;48.452;9.216;2023-05-02T03:46:04;427.00;;;125.33;;
8407;SDS011;4241;48.452;9.216;2023-05-02T03:48:32;424.23;;;122.73;;
8407;SDS011;4241;48.452;9.216;2023-05-02T03:51:00;425.73;;;123.57;;
8407;SDS011;4241;48.452;9.216;2023-05-02T03:53:27;429.93;;;126.47;;
8407;SDS011;4241;48.452;9.216;2023-05-02T03:55:55;426.40;;;124.33;;
8407;SDS011;4241;48.452;9.216;2023-05-02T03:58:23;425.20;;;122.97;;
8407;SDS011;4241;48.452;9.216;2023-05-02T04:00:51;426.03;;;124.00;;
8407;SDS011;4241;48.452;9.216;2023-05-02T04:03:18;426.30;;;123.87;;
8407;SDS011;4241;48.452;9.216;2023-05-02T04:05:45;425.97;;;124.13;;
8407;SDS011;4241;48.452;9.216;2023-05-02T04:08:12;424.07;;;121.90;;
8407;SDS011;4241;48.452;9.216;2023-05-02T04:10:39;422.27;;;120.90;;
8407;SDS011;4241;48.452;9.216;2023-05-02T04:13:05;423.73;;;122.27;;
8407;SDS011;4241;48.452;9.216;2023-05-02T04:15:33;430.93;;;127.33;;
8407;SDS011;4241;48.452;9.216;2023-05-02T04:18:00;424.63;;;122.30;;
8407;SDS011;4241;48.452;9.216;2023-05-02T04:20:27;429.20;;;126.10;;
8407;SDS011;4241;48.452;9.216;2023-05-02T04:22:55;423.67;;;122.67;;
8407;SDS011;4241;48.452;9.216;2023-05-02T04:25:21;427.93;;;125.73;;
8407;SDS011;4241;48.452;9.216;2023-05-02T04:27:48;426.27;;;123.87;;
8407;SDS011;4241;48.452;9.216;2023-05-02T04:30:15;426.60;;;123.93;;
8407;SDS011;4241;48.452;9.216;2023-05-02T04:32:43;425.33;;;122.77;;
8407;SDS011;4241;48.452;9.216;2023-05-02T04:35:10;426.67;;;125.00;;
8407;SDS011;4241;48.452;9.216;2023-05-02T04:37:37;425.07;;;123.50;;
8407;SDS011;4241;48.452;9.216;2023-05-02T04:40:04;425.87;;;123.63;;
8407;SDS011;4241;48.452;9.216;2023-05-02T04:42:32;426.03;;;123.87;;
8407;SDS011;4241;48.452;9.216;2023-05-02T04:44:58;426.03;;;124.50;;
8407;SDS011;4241;48.452;9.216;2023-05-02T04:47:25;424.20;;;122.93;;
8407;SDS011;4241;48.452;9.216;2023-05-02T04:49:53;428.47;;;126.30;;
8407;SDS011;4241;48.452;9.216;2023-05-02T04:52:20;427.13;;;124.93;;
8407;SDS011;4241;48.452;9.216;2023-05-02T04:54:47;427.97;;;126.67;;
8407;SDS011;4241;48.452;9.216;2023-05-02T04:57:14;432.07;;;128.33;;
8407;SDS011;4241;48.452;9.216;2023-05-02T04:59:40;431.97;;;129.13;;
8407;SDS011;4241;48.452;9.216;2023-05-02T05:02:07;428.07;;;125.83;;
8407;SDS011;4241;48.452;9.216;2023-05-02T05:04:36;426.50;;;124.80;;
8407;SDS011;4241;48.452;9.216;2023-05-02T05:07:04;431.03;;;128.80;;
8407;SDS011;4241;48.452;9.216;2023-05-02T05:09:31;429.17;;;126.73;;
8407;SDS011;4241;48.452;9.216;2023-05-02T05:11:58;430.83;;;127.40;;
8407;SDS011;4241;48.452;9.216;2023-05-02T05:14:25;430.10;;;127.73;;
8407;SDS011;4241;48.452;9.216;2023-05-02T05:16:52;428.57;;;125.63;;
8407;SDS011;4241;48.452;9.216;2023-05-02T05:19:19;430.67;;;128.17;;
8407;SDS011;4241;48.452;9.216;2023-05-02T05:21:46;431.00;;;127.83;;
8407;SDS011;4241;48.452;9.216;2023-05-02T05:24:14;429.10;;;126.33;;
8407;SDS011;4241;48.452;9.216;2023-05-02T05:26:41;429.27;;;126.07;;
8407;SDS011;4241;48.452;9.216;2023-05-02T05:29:07;431.93;;;129.23;;
8407;SDS011;4241;48.452;9.216;2023-05-02T05:31:35;431.33;;;127.80;;
8407;SDS011;4241;48.452;9.216;2023-05-02T05:34:02;429.83;;;127.00;;
8407;SDS011;4241;48.452;9.216;2023-05-02T05:36:29;430.27;;;126.57;;
8407;SDS011;4241;48.452;9.216;2023-05-02T05:38:56;430.67;;;127.43;;
8407;SDS011;4241;48.452;9.216;2023-05-02T05:41:26;432.53;;;129.33;;
8407;SDS011;4241;48.452;9.216;2023-05-02T05:43:54;431.97;;;128.63;;
8407;SDS011;4241;48.452;9.216;2023-05-02T05:46:21;431.93;;;129.17;;
8407;SDS011;4241;48.452;9.216;2023-05-02T05:48:48;431.80;;;128.83;;
8407;SDS011;4241;48.452;9.216;2023-05-02T05:51:14;434.87;;;131.30;;
8407;SDS011;4241;48.452;9.216;2023-05-02T05:53:41;434.33;;;130.27;;
8407;SDS011;4241;48.452;9.216;2023-05-02T05:56:08;434.77;;;132.33;;
8407;SDS011;4241;48.452;9.216;2023-05-02T05:58:37;432.67;;;129.97;;
8407;SDS011;4241;48.452;9.216;2023-05-02T06:01:04;434.90;;;131.03;;
8407;SDS011;4241;48.452;9.216;2023-05-02T06:03:31;432.40;;;129.13;;
8407;SDS011;4241;48.452;9.216;2023-05-02T06:05:58;433.07;;;129.77;;
8407;SDS011;4241;48.452;9.216;2023-05-02T06:08:24;434.13;;;131.13;;
8407;SDS011;4241;48.452;9.216;2023-05-02T06:10:51;435.67;;;131.37;;
8407;SDS011;4241;48.452;9.216;2023-05-02T06:13:18;433.77;;;130.77;;
8407;SDS011;4241;48.452;9.216;2023-05-02T06:15:46;437.07;;;132.93;;
8407;SDS011;4241;48.452;9.216;2023-05-02T06:18:13;435.93;;;132.27;;
8407;SDS011;4241;48.452;9.216;2023-05-02T06:20:40;435.13;;;131.93;;
8407;SDS011;4241;48.452;9.216;2023-05-02T06:23:07;436.03;;;133.40;;
8407;SDS011;4241;48.452;9.216;2023-05-02T06:25:37;442.93;;;140.00;;
8407;SDS011;4241;48.452;9.216;2023-05-02T06:28:04;436.37;;;133.03;;
8407;SDS011;4241;48.452;9.216;2023-05-02T06:30:31;437.00;;;134.00;;
8407;SDS011;4241;48.452;9.216;2023-05-02T06:32:59;437.73;;;134.67;;
8407;SDS011;4241;48.452;9.216;2023-05-02T06:35:26;444.30;;;141.57;;
8407;SDS011;4241;48.452;9.216;2023-05-02T06:37:52;439.33;;;136.67;;
8407;SDS011;4241;48.452;9.216;2023-05-02T06:40:19;439.23;;;136.83;;
8407;SDS011;4241;48.452;9.216;2023-05-02T06:42:46;439.17;;;136.13;;
8407;SDS011;4241;48.452;9.216;2023-05-02T06:45:13;439.13;;;136.57;;
8407;SDS011;4241;48.452;9.216;2023-05-02T06:47:40;440.03;;;136.70;;
8407;SDS011;4241;48.452;9.216;2023-05-02T06:50:09;436.90;;;134.37;;
8407;SDS011;4241;48.452;9.216;2023-05-02T06:52:36;447.93;;;145.07;;
8407;SDS011;4241;48.452;9.216;2023-05-02T06:55:03;442.77;;;139.07;;
8407;SDS011;4241;48.452;9.216;2023-05-02T06:57:30;442.70;;;138.83;;
8407;SDS011;4241;48.452;9.216;2023-05-02T06:59:57;442.83;;;139.23;;
8407;SDS011;4241;48.452;9.216;2023-05-02T07:02:24;439.27;;;136.50;;
8407;SDS011;4241;48.452;9.216;2023-05-02T07:04:51;439.53;;;136.40;;
8407;SDS011;4241;48.452;9.216;2023-05-02T07:07:19;439.37;;;136.27;;
8407;SDS011;4241;48.452;9.216;2023-05-02T07:09:46;438.63;;;135.00;;
8407;SDS011;4241;48.452;9.216;2023-05-02T07:12:13;437.27;;;135.43;;
8407;SDS011;4241;48.452;9.216;2023-05-02T07:14:39;440.13;;;137.67;;
8407;SDS011;4241;48.452;9.216;2023-05-02T07:17:07;441.37;;;137.77;;
8407;SDS011;4241;48.452;9.216;2023-05-02T07:19:34;444.00;;;139.33;;
8407;SDS011;4241;48.452;9.216;2023-05-02T07:22:00;441.67;;;137.83;;
8407;SDS011;4241;48.452;9.216;2023-05-02T07:24:29;436.67;;;134.00;;
8407;SDS011;4241;48.452;9.216;2023-05-02T07:26:55;439.73;;;137.07;;
8407;SDS011;4241;48.452;9.216;2023-05-02T07:29:22;440.20;;;137.27;;
8407;SDS011;4241;48.452;9.216;2023-05-02T07:31:49;440.10;;;137.33;;
8407;SDS011;4241;48.452;9.216;2023-05-02T07:34:16;439.40;;;136.30;;
8407;SDS011;4241;48.452;9.216;2023-05-02T07:36:43;439.33;;;137.70;;
8407;SDS011;4241;48.452;9.216;2023-05-02T07:39:10;441.07;;;138.00;;
8407;SDS011;4241;48.452;9.216;2023-05-02T07:41:38;442.90;;;139.33;;
8407;SDS011;4241;48.452;9.216;2023-05-02T07:44:05;441.80;;;138.37;;
8407;SDS011;4241;48.452;9.216;2023-05-02T07:46:31;442.30;;;140.03;;
8407;SDS011;4241;48.452;9.216;2023-05-02T07:48:59;442.47;;;139.00;;
8407;SDS011;4241;48.452;9.216;2023-05-02T07:51:25;437.00;;;135.47;;
8407;SDS011;4241;48.452;9.216;2023-05-02T07:53:52;440.33;;;137.90;;
8407;SDS011;4241;48.452;9.216;2023-05-02T07:56:22;437.03;;;135.10;;
8407;SDS011;4241;48.452;9.216;2023-05-02T07:58:50;441.23;;;139.10;;
8407;SDS011;4241;48.452;9.216;2023-05-02T08:01:17;440.53;;;136.87;;
8407;SDS011;4241;48.452;9.216;2023-05-02T08:03:45;447.87;;;144.47;;
8407;SDS011;4241;48.452;9.216;2023-05-02T08:06:13;452.27;;;149.03;;
8407;SDS011;4241;48.452;9.216;2023-05-02T08:08:40;442.13;;;139.83;;
8407;SDS011;4241;48.452;9.216;2023-05-02T08:11:07;445.00;;;141.03;;
8407;SDS011;4241;48.452;9.216;2023-05-02T08:13:33;444.40;;;140.73;;
8407;SDS011;4241;48.452;9.216;2023-05-02T08:16:02;448.70;;;145.77;;
8407;SDS011;4241;48.452;9.216;2023-05-02T08:18:28;440.60;;;138.63;;
8407;SDS011;4241;48.452;9.216;2023-05-02T08:20:55;443.23;;;140.70;;
8407;SDS011;4241;48.452;9.216;2023-05-02T08:23:23;445.83;;;143.13;;
8407;SDS011;4241;48.452;9.216;2023-05-02T08:25:50;443.57;;;141.57;;
8407;SDS011;4241;48.452;9.216;2023-05-02T08:28:16;444.40;;;141.70;;
8407;SDS011;4241;48.452;9.216;2023-05-02T08:30:43;444.40;;;141.20;;
8407;SDS011;4241;48.452;9.216;2023-05-02T08:33:12;442.03;;;140.27;;
8407;SDS011;4241;48.452;9.216;2023-05-02T08:35:38;442.07;;;139.23;;
8407;SDS011;4241;48.452;9.216;2023-05-02T08:38:05;439.17;;;137.27;;
8407;SDS011;4241;48.452;9.216;2023-05-02T08:40:34;445.57;;;142.00;;
8407;SDS011;4241;48.452;9.216;2023-05-02T08:43:02;442.07;;;139.70;;
8407;SDS011;4241;48.452;9.216;2023-05-02T08:45:30;447.50;;;145.57;;
8407;SDS011;4241;48.452;9.216;2023-05-02T08:48:03;446.13;;;143.23;;
8407;SDS011;4241;48.452;9.216;2023-05-02T08:50:33;441.67;;;139.93;;
8407;SDS011;4241;48.452;9.216;2023-05-02T08:53:03;442.40;;;139.83;;
8407;SDS011;4241;48.452;9.216;2023-05-02T08:55:31;452.77;;;149.67;;
8407;SDS011;4241;48.452;9.216;2023-05-02T08:57:59;446.07;;;144.23;;
8407;SDS011;4241;48.452;9.216;2023-05-02T09:00:28;447.77;;;143.37;;
8407;SDS011;4241;48.452;9.216;2023-05-02T09:02:58;443.87;;;142.60;;
8407;SDS011;4241;48.452;9.216;2023-05-02T09:05:35;449.27;;;148.00;;
8407;SDS011;4241;48.452;9.216;2023-05-02T09:08:06;450.60;;;148.73;;
8407;SDS011;4241;48.452;9.216;2023-05-02T09:10:33;454.93;;;153.50;;
8407;SDS011;4241;48.452;9.216;2023-05-02T09:16:00;444.60;;;142.97;;
8407;SDS011;4241;48.452;9.216;2023-05-02T09:18:28;447.73;;;147.17;;
8407;SDS011;4241;48.452;9.216;2023-05-02T09:20:58;452.87;;;151.10;;
8407;SDS011;4241;48.452;9.216;2023-05-02T09:23:33;447.53;;;147.73;;
8407;SDS011;4241;48.452;9.216;2023-05-02T09:26:01;449.50;;;148.47;;
8407;SDS011;4241;48.452;9.216;2023-05-02T09:28:39;452.97;;;151.93;;
8407;SDS011;4241;48.452;9.216;2023-05-02T09:31:07;448.63;;;147.87;;
8407;SDS011;4241;48.452;9.216;2023-05-02T09:33:35;450.43;;;150.80;;
8407;SDS011;4241;48.452;9.216;2023-05-02T09:36:04;451.90;;;151.60;;
8407;SDS011;4241;48.452;9.216;2023-05-02T09:38:32;448.60;;;149.70;;
8407;SDS011;4241;48.452;9.216;2023-05-02T09:40:59;449.00;;;149.50;;
8407;SDS011;4241;48.452;9.216;2023-05-02T09:43:27;450.80;;;152.43;;
8407;SDS011;4241;48.452;9.216;2023-05-02T09:45:58;451.93;;;152.63;;
8407;SDS011;4241;48.452;9.216;2023-05-02T09:48:27;453.13;;;154.13;;
8407;SDS011;4241;48.452;9.216;2023-05-02T09:50:55;451.90;;;154.07;;
8407;SDS011;4241;48.452;9.216;2023-05-02T09:53:24;451.57;;;155.07;;
8407;SDS011;4241;48.452;9.216;2023-05-02T09:55:58;452.13;;;154.10;;
8407;SDS011;4241;48.452;9.216;2023-05-02T09:58:26;452.50;;;155.20;;
8407;SDS011;4241;48.452;9.216;2023-05-02T10:00:54;451.57;;;154.47;;
8407;SDS011;4241;48.452;9.216;2023-05-02T10:03:22;454.40;;;159.17;;
8407;SDS011;4241;48.452;9.216;2023-05-02T10:05:50;455.23;;;161.23;;
8407;SDS011;4241;48.452;9.216;2023-05-02T10:08:18;459.13;;;163.00;;
8407;SDS011;4241;48.452;9.216;2023-05-02T10:10:49;456.17;;;161.93;;
8407;SDS011;4241;48.452;9.216;2023-05-02T10:13:18;457.70;;;161.37;;
8407;SDS011;4241;48.452;9.216;2023-05-02T10:15:48;455.40;;;161.47;;
8407;SDS011;4241;48.452;9.216;2023-05-02T10:18:20;456.07;;;162.00;;
8407;SDS011;4241;48.452;9.216;2023-05-02T10:20:55;454.97;;;160.87;;
8407;SDS011;4241;48.452;9.216;2023-05-02T10:23:27;456.17;;;164.17;;
8407;SDS011;4241;48.452;9.216;2023-05-02T10:25:57;459.37;;;169.13;;
8407;SDS011;4241;48.452;9.216;2023-05-02T10:28:25;456.80;;;169.53;;
8407;SDS011;4241;48.452;9.216;2023-05-02T10:30:52;462.30;;;176.70;;
8407;SDS011;4241;48.452;9.216;2023-05-02T10:33:20;465.47;;;183.47;;
8407;SDS011;4241;48.452;9.216;2023-05-02T10:35:47;465.67;;;187.20;;
8407;SDS011;4241;48.452;9.216;2023-05-02T10:38:16;466.97;;;191.60;;
8407;SDS011;4241;48.452;9.216;2023-05-02T10:40:49;464.13;;;190.63;;
8407;SDS011;4241;48.452;9.216;2023-05-02T10:43:22;467.97;;;198.93;;
8407;SDS011;4241;48.452;9.216;2023-05-02T10:45:50;470.43;;;206.13;;
8407;SDS011;4241;48.452;9.216;2023-05-02T10:48:18;474.67;;;209.80;;
8407;SDS011;4241;48.452;9.216;2023-05-02T10:50:46;469.23;;;206.03;;
8407;SDS011;4241;48.452;9.216;2023-05-02T10:53:21;469.90;;;207.00;;
8407;SDS011;4241;48.452;9.216;2023-05-02T10:56:08;472.60;;;213.83;;
8407;SDS011;4241;48.452;9.216;2023-05-02T10:58:39;470.03;;;209.83;;
8407;SDS011;4241;48.452;9.216;2023-05-02T11:04:07;471.60;;;213.93;;
8407;SDS011;4241;48.452;9.216;2023-05-02T11:06:35;476.43;;;221.53;;
8407;SDS011;4241;48.452;9.216;2023-05-02T11:11:59;469.37;;;214.50;;
8407;SDS011;4241;48.452;9.216;2023-05-02T11:17:12;470.93;;;213.97;;
8407;SDS011;4241;48.452;9.216;2023-05-02T11:22:53;469.37;;;208.97;;
8407;SDS011;4241;48.452;9.216;2023-05-02T11:25:27;472.47;;;214.00;;
8407;SDS011;4241;48.452;9.216;2023-05-02T11:27:55;470.70;;;210.17;;
8407;SDS011;4241;48.452;9.216;2023-05-02T11:30:36;471.33;;;209.03;;
8407;SDS011;4241;48.452;9.216;2023-05-02T11:33:12;476.60;;;208.63;;
8407;SDS011;4241;48.452;9.216;2023-05-02T11:35:41;469.90;;;200.60;;
8407;SDS011;4241;48.452;9.216;2023-05-02T11:38:10;467.73;;;196.60;;
8407;SDS011;4241;48.452;9.216;2023-05-02T11:40:38;470.47;;;204.33;;
8407;SDS011;4241;48.452;9.216;2023-05-02T11:43:11;476.83;;;209.47;;
8407;SDS011;4241;48.452;9.216;2023-05-02T11:45:41;480.70;;;219.67;;
8407;SDS011;4241;48.452;9.216;2023-05-02T11:48:08;469.73;;;208.27;;
8407;SDS011;4241;48.452;9.216;2023-05-02T11:50:43;473.47;;;214.20;;
8407;SDS011;4241;48.452;9.216;2023-05-02T11:53:11;470.43;;;209.83;;
8407;SDS011;4241;48.452;9.216;2023-05-02T11:55:43;473.80;;;213.57;;
8407;SDS011;4241;48.452;9.216;2023-05-02T11:58:11;471.87;;;209.70;;
8407;SDS011;4241;48.452;9.216;2023-05-02T12:00:41;468.53;;;207.73;;
8407;SDS011;4241;48.452;9.216;2023-05-02T12:03:18;471.97;;;213.00;;
8407;SDS011;4241;48.452;9.216;2023-05-02T12:05:46;470.07;;;208.80;;
8407;SDS011;4241;48.452;9.216;2023-05-02T12:08:17;472.27;;;213.87;;
8407;SDS011;4241;48.452;9.216;2023-05-02T12:10:44;473.07;;;215.37;;
8407;SDS011;4241;48.452;9.216;2023-05-02T12:13:11;477.33;;;215.00;;
8407;SDS011;4241;48.452;9.216;2023-05-02T12:15:40;474.13;;;216.43;;
8407;SDS011;4241;48.452;9.216;2023-05-02T12:18:07;469.97;;;208.17;;
8407;SDS011;4241;48.452;9.216;2023-05-02T12:20:35;470.47;;;207.43;;
8407;SDS011;4241;48.452;9.216;2023-05-02T12:23:03;475.13;;;210.27;;
8407;SDS011;4241;48.452;9.216;2023-05-02T12:25:35;474.37;;;207.20;;
8407;SDS011;4241;48.452;9.216;2023-05-02T12:28:03;467.87;;;199.00;;
8407;SDS011;4241;48.452;9.216;2023-05-02T12:30:30;472.77;;;202.53;;
8407;SDS011;4241;48.452;9.216;2023-05-02T12:32:59;468.27;;;196.37;;
8407;SDS011;4241;48.452;9.216;2023-05-02T12:35:28;475.73;;;205.97;;
8407;SDS011;4241;48.452;9.216;2023-05-02T12:38:06;467.43;;;196.77;;
8407;SDS011;4241;48.452;9.216;2023-05-02T12:40:37;475.03;;;206.90;;
8407;SDS011;4241;48.452;9.216;2023-05-02T12:43:14;469.03;;;203.40;;
8407;SDS011;4241;48.452;9.216;2023-05-02T12:45:43;470.03;;;205.83;;
8407;SDS011;4241;48.452;9.216;2023-05-02T12:48:20;471.17;;;208.10;;
8407;SDS011;4241;48.452;9.216;2023-05-02T12:50:48;476.70;;;219.30;;
8407;SDS011;4241;48.452;9.216;2023-05-02T12:53:15;470.67;;;210.93;;
8407;SDS011;4241;48.452;9.216;2023-05-02T12:55:42;473.43;;;217.20;;
8407;SDS011;4241;48.452;9.216;2023-05-02T12:58:10;472.43;;;213.10;;
8407;SDS011;4241;48.452;9.216;2023-05-02T13:00:39;471.60;;;215.73;;
8407;SDS011;4241;48.452;9.216;2023-05-02T13:03:07;474.07;;;218.23;;
8407;SDS011;4241;48.452;9.216;2023-05-02T13:05:36;478.33;;;224.57;;
8407;SDS011;4241;48.452;9.216;2023-05-02T13:08:03;475.03;;;220.47;;
8407;SDS011;4241;48.452;9.216;2023-05-02T13:10:30;472.27;;;216.27;;
8407;SDS011;4241;48.452;9.216;2023-05-02T13:12:57;472.87;;;218.23;;
8407;SDS011;4241;48.452;9.216;2023-05-02T13:15:25;476.47;;;220.87;;
8407;SDS011;4241;48.452;9.216;2023-05-02T13:17:52;474.77;;;217.27;;
8407;SDS011;4241;48.452;9.216;2023-05-02T13:20:19;470.80;;;212.87;;
8407;SDS011;4241;48.452;9.216;2023-05-02T13:22:48;471.23;;;210.43;;
8407;SDS011;4241;48.452;9.216;2023-05-02T13:25:14;472.27;;;210.47;;
8407;SDS011;4241;48.452;9.216;2023-05-02T13:27:42;473.57;;;213.93;;
8407;SDS011;4241;48.452;9.216;2023-05-02T13:30:10;474.53;;;214.83;;
8407;SDS011;4241;48.452;9.216;2023-05-02T13:32:37;474.13;;;219.03;;
8407;SDS011;4241;48.452;9.216;2023-05-02T13:35:05;473.33;;;216.73;;
8407;SDS011;4241;48.452;9.216;2023-05-02T13:37:33;473.00;;;218.90;;
8407;SDS011;4241;48.452;9.216;2023-05-02T13:40:01;474.47;;;219.50;;
8407;SDS011;4241;48.452;9.216;2023-05-02T13:42:28;474.07;;;216.70;;
8407;SDS011;4241;48.452;9.216;2023-05-02T13:44:55;475.40;;;217.90;;
8407;SDS011;4241;48.452;9.216;2023-05-02T13:47:22;471.67;;;213.40;;
8407;SDS011;4241;48.452;9.216;2023-05-02T13:49:50;470.37;;;205.97;;
8407;SDS011;4241;48.452;9.216;2023-05-02T13:52:17;469.97;;;203.80;;
8407;SDS011;4241;48.452;9.216;2023-05-02T13:54:43;466.93;;;198.57;;
8407;SDS011;4241;48.452;9.216;2023-05-02T13:57:12;465.10;;;195.33;;
8407;SDS011;4241;48.452;9.216;2023-05-02T13:59:39;464.67;;;191.77;;
8407;SDS011;4241;48.452;9.216;2023-05-02T14:02:06;464.53;;;188.30;;
8407;SDS011;4241;48.452;9.216;2023-05-02T14:04:33;462.73;;;187.23;;
8407;SDS011;4241;48.452;9.216;2023-05-02T14:07:00;462.20;;;183.23;;
8407;SDS011;4241;48.452;9.216;2023-05-02T14:09:27;467.07;;;189.13;;
8407;SDS011;4241;48.452;9.216;2023-05-02T14:11:54;466.30;;;188.23;;
8407;SDS011;4241;48.452;9.216;2023-05-02T14:14:24;463.83;;;184.97;;
8407;SDS011;4241;48.452;9.216;2023-05-02T14:16:50;463.43;;;184.07;;
8407;SDS011;4241;48.452;9.216;2023-05-02T14:19:18;463.30;;;183.27;;
8407;SDS011;4241;48.452;9.216;2023-05-02T14:21:45;464.73;;;187.20;;
8407;SDS011;4241;48.452;9.216;2023-05-02T14:24:13;464.77;;;187.00;;
8407;SDS011;4241;48.452;9.216;2023-05-02T14:26:40;465.43;;;186.20;;
8407;SDS011;4241;48.452;9.216;2023-05-02T14:29:07;469.00;;;188.30;;
8407;SDS011;4241;48.452;9.216;2023-05-02T14:31:36;465.43;;;185.97;;
8407;SDS011;4241;48.452;9.216;2023-05-02T14:34:02;466.67;;;189.37;;
8407;SDS011;4241;48.452;9.216;2023-05-02T14:36:29;463.57;;;186.27;;
8407;SDS011;4241;48.452;9.216;2023-05-02T14:38:56;464.20;;;188.70;;
8407;SDS011;4241;48.452;9.216;2023-05-02T14:41:23;473.13;;;199.40;;
8407;SDS011;4241;48.452;9.216;2023-05-02T14:43:50;466.30;;;191.40;;
8407;SDS011;4241;48.452;9.216;2023-05-02T14:46:17;465.97;;;189.87;;